Montrose, Missouri
Current Conditions -  °F | °C
As of 10:35 PM on Tuesday 25 Nov 2014 (Local Time) from KGLY Reporting Station
Clear Clear  
Wind Chill: 30°   Ceiling: Unl
Heat Index: 34°   Visibility: 10mi
Dew Point: 23°   Wind: 5mph
Humidity: 65%   Direction: 150°SSE
Pressure: 30.09"   Gusts: NA
Location:  38.26°N, 93.98°W
Report Text: KGLY 260435Z AUTO 15004KT 10SM CLR 01/M05 A3009 RMK AO2
Loading
Personal Weather Stations






























Interactive Weather Map New forecast layout! Learn more

10-Day Weather Forecast

Advertisements
Track Severe Weather on mobile